createdAt,value
2024-01-03T05:00:10.914Z,-22.00
2024-01-03T05:00:14.739Z,-22.00
2024-01-03T05:00:18.072Z,-22.00
2024-01-03T05:00:21.423Z,-23.00
2024-01-03T05:00:24.830Z,-22.00
2024-01-03T05:00:28.209Z,-22.00
2024-01-03T05:01:11.439Z,-22.00
2024-01-03T05:01:19.645Z,-22.00
2024-01-03T05:01:24.044Z,-20.00
2024-01-03T05:01:27.375Z,-22.00
2024-01-03T05:01:30.720Z,-22.00
2024-01-03T05:01:34.067Z,-22.00
2024-01-03T05:02:14.706Z,-23.00
2024-01-03T05:02:21.500Z,-22.00
2024-01-03T05:02:24.886Z,-23.00
2024-01-03T05:02:33.136Z,-23.00
2024-01-03T05:02:36.626Z,-22.00
2024-01-03T05:02:40.101Z,-22.00
2024-01-03T06:00:10.748Z,-22.00
2024-01-03T06:00:14.070Z,-22.00
2024-01-03T06:00:17.434Z,-24.00
2024-01-03T06:00:20.772Z,-22.00
2024-01-03T06:00:24.104Z,-22.00
2024-01-03T06:00:27.444Z,-22.00
2024-01-03T06:01:13.857Z,-22.00
2024-01-03T06:01:17.260Z,-22.00
2024-01-03T06:01:20.705Z,-20.00
2024-01-03T06:01:24.061Z,-23.00
2024-01-03T06:01:27.389Z,-21.00
2024-01-03T06:01:30.731Z,-23.00
2024-01-03T06:02:13.962Z,-22.00
2024-01-03T06:02:17.330Z,-22.00
2024-01-03T06:02:20.696Z,-24.00
2024-01-03T06:02:27.364Z,-22.00
2024-01-03T06:02:30.766Z,-22.00
2024-01-03T06:02:34.181Z,-22.00
2024-01-03T07:00:10.635Z,-22.00
2024-01-03T07:00:13.999Z,-22.00
2024-01-03T07:00:17.377Z,-22.00
2024-01-03T07:00:20.774Z,-22.00
2024-01-03T07:00:24.119Z,-24.00
2024-01-03T07:00:27.441Z,-22.00
2024-01-03T07:01:13.915Z,-22.00
2024-01-03T07:01:17.305Z,-20.00
2024-01-03T07:01:20.691Z,-20.00
2024-01-03T07:01:24.056Z,-23.00
2024-01-03T07:01:27.403Z,-22.00
2024-01-03T07:01:30.744Z,-24.00
2024-01-03T07:02:17.135Z,-22.00
2024-01-03T07:02:20.631Z,-23.00
2024-01-03T07:02:24.064Z,-22.00
2024-01-03T07:02:27.554Z,-23.00
2024-01-03T07:02:30.963Z,-24.00
2024-01-03T07:02:34.395Z,-22.00
2024-01-03T08:00:10.491Z,-24.00
2024-01-03T08:00:13.924Z,-22.00
2024-01-03T08:00:17.247Z,-22.00
2024-01-03T08:00:20.602Z,-23.00
2024-01-03T08:00:23.942Z,-21.00
2024-01-03T08:00:27.285Z,-24.00
2024-01-03T08:01:10.415Z,-24.00
2024-01-03T08:01:17.124Z,-24.00
2024-01-03T08:01:20.523Z,-22.00
2024-01-03T08:01:23.968Z,-22.00
2024-01-03T08:01:27.369Z,-23.00
2024-01-03T08:01:30.733Z,-21.00
2024-01-03T08:02:10.461Z,-23.00
2024-01-03T08:02:17.152Z,-23.00
2024-01-03T08:02:23.842Z,-22.00
2024-01-03T08:02:27.210Z,-23.00
2024-01-03T08:02:30.620Z,-22.00
2024-01-03T08:02:33.959Z,-22.00
2024-01-03T09:00:10.864Z,-24.00
2024-01-03T09:00:14.269Z,-24.00
2024-01-03T09:00:17.609Z,-23.00
2024-01-03T09:00:20.940Z,-22.00
2024-01-03T09:00:24.284Z,-23.00
2024-01-03T09:00:28.151Z,-22.00
2024-01-03T09:01:11.349Z,-23.00
2024-01-03T09:01:14.694Z,-23.00
2024-01-03T09:01:18.209Z,-22.00
2024-01-03T09:01:21.726Z,-22.00
2024-01-03T09:01:25.087Z,-22.00
2024-01-03T09:01:28.414Z,-22.00
2024-01-03T09:02:11.732Z,-23.00
2024-01-03T09:02:15.073Z,-24.00
2024-01-03T09:02:18.440Z,-22.00
2024-01-03T09:02:21.840Z,-22.00
2024-01-03T09:02:25.288Z,-22.00
2024-01-03T09:02:28.710Z,-24.00
2024-01-03T10:00:10.126Z,-23.00
2024-01-03T10:00:13.572Z,-23.00
2024-01-03T10:00:16.963Z,-24.00
2024-01-03T10:00:20.296Z,-23.00
2024-01-03T10:00:23.649Z,-23.00
2024-01-03T10:00:26.978Z,-22.00
2024-01-03T10:01:11.868Z,-22.00
2024-01-03T10:01:15.214Z,-23.00
2024-01-03T10:01:18.673Z,-24.00
2024-01-03T10:01:22.142Z,-23.00
2024-01-03T10:01:25.605Z,-22.00
2024-01-03T10:01:29.020Z,-22.00
2024-01-03T10:02:13.943Z,-23.00
2024-01-03T10:02:17.275Z,-22.00
2024-01-03T10:02:20.650Z,-22.00
2024-01-03T10:02:23.997Z,-23.00
2024-01-03T10:02:27.372Z,-22.00
2024-01-03T10:02:30.731Z,-23.00
2024-01-03T11:00:09.866Z,-19.00
2024-01-03T11:00:13.193Z,-20.00
2024-01-03T11:00:16.533Z,-20.00
2024-01-03T11:00:19.868Z,-20.00
2024-01-03T11:00:23.247Z,-20.00
2024-01-03T11:00:26.558Z,-20.00
2024-01-03T11:01:13.118Z,-20.00
2024-01-03T11:01:16.503Z,-20.00
2024-01-03T11:01:19.884Z,-21.00
2024-01-03T11:01:23.253Z,-20.00
2024-01-03T11:01:26.670Z,-21.00
2024-01-03T11:01:30.041Z,-21.00
2024-01-03T11:02:13.267Z,-20.00
2024-01-03T11:02:16.606Z,-19.00
2024-01-03T11:02:20.015Z,-21.00
2024-01-03T11:02:23.429Z,-20.00
2024-01-03T11:02:26.801Z,-20.00
2024-01-03T11:02:30.161Z,-20.00
2024-01-03T12:00:09.710Z,-23.00
2024-01-03T12:00:13.128Z,-24.00
2024-01-03T12:00:16.498Z,-24.00
2024-01-03T12:00:20.544Z,-22.00
2024-01-03T12:00:23.924Z,-23.00
2024-01-03T12:00:27.248Z,-24.00
2024-01-03T12:01:10.789Z,-22.00
2024-01-03T12:01:18.839Z,-23.00
2024-01-03T12:01:22.223Z,-22.00
2024-01-03T12:01:25.607Z,-22.00
2024-01-03T12:01:28.992Z,-23.00
2024-01-03T12:01:35.545Z,-23.00
2024-01-03T12:02:13.758Z,-24.00
2024-01-03T12:02:20.547Z,-23.00
2024-01-03T12:02:23.912Z,-22.00
2024-01-03T12:02:27.318Z,-22.00
2024-01-03T12:02:30.742Z,-23.00
2024-01-03T12:02:34.198Z,-23.00
2024-01-03T13:00:09.627Z,-24.00
2024-01-03T13:00:13.053Z,-24.00
2024-01-03T13:00:16.547Z,-24.00
2024-01-03T13:00:20.077Z,-24.00
2024-01-03T13:00:23.483Z,-25.00
2024-01-03T13:00:27.089Z,-24.00
2024-01-03T13:01:10.456Z,-24.00
2024-01-03T13:01:13.880Z,-24.00
2024-01-03T13:01:17.231Z,-24.00
2024-01-03T13:01:20.632Z,-24.00
2024-01-03T13:01:24.014Z,-24.00
2024-01-03T13:01:28.026Z,-25.00
2024-01-03T13:02:12.720Z,-25.00
2024-01-03T13:02:16.060Z,-24.00
2024-01-03T13:02:19.384Z,-24.00
2024-01-03T13:02:22.765Z,-25.00
2024-01-03T13:02:26.107Z,-24.00
2024-01-03T13:02:29.486Z,-24.00
2024-01-03T14:00:09.244Z,-26.00
2024-01-03T14:00:12.607Z,-24.00
2024-01-03T14:00:16.020Z,-25.00
2024-01-03T14:00:19.374Z,-25.00
2024-01-03T14:00:22.704Z,-25.00
2024-01-03T14:00:26.039Z,-26.00
2024-01-03T14:01:10.878Z,-25.00
2024-01-03T14:01:14.273Z,-24.00
2024-01-03T14:01:17.702Z,-24.00
2024-01-03T14:01:21.056Z,-24.00
2024-01-03T14:01:24.395Z,-26.00
2024-01-03T14:01:27.726Z,-24.00
2024-01-03T14:02:10.925Z,-24.00
2024-01-03T14:02:14.267Z,-24.00
2024-01-03T14:02:20.923Z,-25.00
2024-01-03T14:02:24.292Z,-25.00
2024-01-03T14:02:27.621Z,-24.00
2024-01-03T14:02:31.012Z,-24.00
2024-01-03T15:00:09.144Z,-28.00
2024-01-03T15:00:12.585Z,-27.00
2024-01-03T15:00:16.016Z,-27.00
2024-01-03T15:00:19.378Z,-27.00
2024-01-03T15:00:22.712Z,-27.00
2024-01-03T15:00:26.082Z,-26.00
2024-01-03T15:01:10.448Z,-27.00
2024-01-03T15:01:13.858Z,-27.00
2024-01-03T15:01:17.245Z,-26.00
2024-01-03T15:01:20.651Z,-26.00
2024-01-03T15:01:24.030Z,-27.00
2024-01-03T15:01:32.274Z,-27.00
2024-01-03T15:02:12.146Z,-26.00
2024-01-03T15:02:15.515Z,-26.00
2024-01-03T15:02:18.847Z,-28.00
2024-01-03T15:02:22.206Z,-28.00
2024-01-03T15:02:26.678Z,-27.00
2024-01-03T15:02:34.902Z,-25.00
2024-01-03T16:00:09.010Z,-27.00
2024-01-03T16:00:12.770Z,-26.00
2024-01-03T16:00:16.261Z,-27.00
2024-01-03T16:00:19.640Z,-28.00
2024-01-03T16:00:23.120Z,-27.00
2024-01-03T16:00:26.603Z,-28.00
2024-01-03T16:01:10.033Z,-26.00
2024-01-03T16:01:13.470Z,-27.00
2024-01-03T16:01:18.002Z,-26.00
2024-01-03T16:01:21.452Z,-27.00
2024-01-03T16:01:24.871Z,-27.00
2024-01-03T16:01:28.341Z,-28.00
2024-01-03T16:02:11.690Z,-26.00
2024-01-03T16:02:15.022Z,-28.00
2024-01-03T16:02:18.355Z,-26.00
2024-01-03T16:02:21.721Z,-27.00
2024-01-03T16:02:25.105Z,-28.00
2024-01-03T16:02:28.459Z,-27.00
2024-01-03T17:00:08.722Z,-28.00
2024-01-03T17:00:12.083Z,-28.00
2024-01-03T17:00:15.470Z,-27.00
2024-01-03T17:00:23.676Z,-27.00
2024-01-03T17:00:27.019Z,-28.00
2024-01-03T17:00:30.409Z,-28.00
2024-01-03T17:01:10.512Z,-27.00
2024-01-03T17:01:13.974Z,-27.00
2024-01-03T17:01:22.167Z,-28.00
2024-01-03T17:01:25.565Z,-26.00
2024-01-03T17:01:28.894Z,-27.00
2024-01-03T17:01:32.249Z,-28.00
2024-01-03T17:02:12.618Z,-28.00
2024-01-03T17:02:15.959Z,-29.00
2024-01-03T17:02:22.663Z,-27.00
2024-01-03T17:02:26.040Z,-28.00
2024-01-03T17:02:29.405Z,-27.00
2024-01-03T17:02:32.797Z,-27.00
2024-01-03T18:00:08.604Z,-28.00
2024-01-03T18:00:12.088Z,-28.00
2024-01-03T18:00:15.500Z,-28.00
2024-01-03T18:00:18.953Z,-28.00
2024-01-03T18:00:22.333Z,-29.00
2024-01-03T18:00:25.666Z,-29.00
2024-01-03T18:01:08.830Z,-26.00
2024-01-03T18:01:12.206Z,-27.00
2024-01-03T18:01:15.628Z,-28.00
2024-01-03T18:01:18.998Z,-28.00
2024-01-03T18:01:22.462Z,-28.00
2024-01-03T18:01:26.126Z,-28.00
2024-01-03T18:02:11.693Z,-28.00
2024-01-03T18:02:15.029Z,-28.00
2024-01-03T18:02:18.383Z,-28.00
2024-01-03T18:02:21.712Z,-26.00
2024-01-03T18:02:25.074Z,-28.00
2024-01-03T18:02:28.424Z,-29.00
2024-01-03T19:00:08.385Z,-28.00
2024-01-03T19:00:11.812Z,-30.00
2024-01-03T19:00:15.160Z,-28.00
2024-01-03T19:00:18.603Z,-28.00
2024-01-03T19:00:22.013Z,-28.00
2024-01-03T19:00:25.398Z,-31.00
2024-01-03T19:01:08.709Z,-31.00
2024-01-03T19:01:12.068Z,-28.00
2024-01-03T19:01:15.463Z,-29.00
2024-01-03T19:01:18.959Z,-31.00
2024-01-03T19:01:22.368Z,-28.00
2024-01-03T19:01:25.732Z,-28.00
2024-01-03T19:02:09.007Z,-29.00
2024-01-03T19:02:12.349Z,-29.00
2024-01-03T19:02:15.681Z,-29.00
2024-01-03T19:02:19.017Z,-29.00
2024-01-03T19:02:22.357Z,-30.00
2024-01-03T19:02:29.039Z,-28.00
2024-01-03T20:00:08.157Z,-28.00
2024-01-03T20:00:11.621Z,-28.00
2024-01-03T20:00:15.158Z,-29.00
2024-01-03T20:00:18.621Z,-28.00
2024-01-03T20:00:22.024Z,-29.00
2024-01-03T20:00:25.389Z,-28.00
2024-01-03T20:01:08.709Z,-31.00
2024-01-03T20:01:12.111Z,-30.00
2024-01-03T20:01:15.492Z,-31.00
2024-01-03T20:01:18.889Z,-28.00
2024-01-03T20:01:22.394Z,-29.00
2024-01-03T20:01:30.507Z,-30.00
2024-01-03T20:02:08.736Z,-28.00
2024-01-03T20:02:15.569Z,-28.00
2024-01-03T20:02:18.978Z,-30.00
2024-01-03T20:02:22.325Z,-27.00
2024-01-03T20:02:25.651Z,-28.00
2024-01-03T20:02:32.289Z,-28.00
2024-01-03T21:00:07.985Z,-30.00
2024-01-03T21:00:11.391Z,-31.00
2024-01-03T21:00:14.761Z,-29.00
2024-01-03T21:00:18.139Z,-29.00
2024-01-03T21:00:21.503Z,-28.00
2024-01-03T21:00:24.857Z,-31.00
2024-01-03T21:01:08.058Z,-31.00
2024-01-03T21:01:11.595Z,-29.00
2024-01-03T21:01:14.970Z,-29.00
2024-01-03T21:01:18.376Z,-28.00
2024-01-03T21:01:21.746Z,-30.00
2024-01-03T21:01:25.143Z,-30.00
2024-01-03T21:02:08.287Z,-31.00
2024-01-03T21:02:11.612Z,-29.00
2024-01-03T21:02:18.246Z,-30.00
2024-01-03T21:02:21.592Z,-29.00
2024-01-03T21:02:24.972Z,-27.00
2024-01-03T21:02:28.320Z,-29.00
